Nearby METAR Reports

 

KIMT - Iron Mountain, Michigan, USA
Distance from station: 0 29mi, 47km
Updated: Thu, 05-Aug-2021 5:54pm CDT
Light rain, Overcast
Light rain, Overcast
 Wind from WSW
Wind: WSW 8 mph , 13 km/h
Temperature: 73°F , 23°C
Dew Point: 61°F , 16°C
Humidity: 65%
Barometer: 29.95 inHg , 1014.2 hPa
Summary: Light rain
Clouds: Overcast
Visibility: 9 miles , 14 km
Cloud details: Overcast 7000 ft
2021/08/05 22:54 KIMT 052254Z AUTO 24007KT 9SM -RA OVC070 23/16 A2995 RMK AO2 RAB37 SLP139 P0000 T02280161
KMNM - Menominee, Michigan, USA
Distance from station: SE 31mi, 51km
Updated: Thu, 05-Aug-2021 5:56pm CDT
Clear
Clear
 Wind from SSW
Wind: SSW 9 mph , 15 km/h
Temperature: 79°F , 26°C
Dew Point: 63°F , 17°C
Humidity: 58%
Barometer: 29.96 inHg , 1014.6 hPa
Clouds: Clear
Visibility: 10 miles , 16 km
2021/08/05 22:56 KMNM 052256Z AUTO 21008KT 10SM CLR 26/17 A2996 RMK AO2 SLP142 T02560172 $
 
KOCQ - Oconto, Wisconsin, USA
Distance from station: SSE 38mi, 61km
Updated: Thu, 05-Aug-2021 5:55pm CDT
Partly cloudy
Partly cloudy
 Wind from SW
Wind: SW 5 mph , 7 km/h
Temperature: 79°F , 26°C
Dew Point: 63°F , 17°C
Humidity: 58%
Barometer: 29.95 inHg , 1014.2 hPa
Clouds: Partly cloudy
Visibility: 10 miles , 16 km
Cloud details: Partly cloudy 5000 ft
Partly cloudy 12000 ft
2021/08/05 22:55 KOCQ 052255Z AUTO 22004KT 10SM SCT050 SCT120 26/17 A2995 RMK AO1 T02580171
KEZS - Shawano Muni, Wisconsin, USA
Distance from station: SSW 48mi, 77km
Updated: Thu, 05-Aug-2021 5:55pm CDT
Partly cloudy
Partly cloudy
 Wind from W
Wind: W 10 mph , 17 km/h
Temperature: 77°F , 25°C
Dew Point: 63°F , 17°C
Humidity: 61%
Barometer: 29.97 inHg , 1014.9 hPa
Clouds: Partly cloudy
Visibility: 10 miles , 16 km
Cloud details: Partly cloudy 4800 ft
Partly cloudy 5000 ft
Partly cloudy 8500 ft
2021/08/05 22:55 KEZS 052255Z AUTO 26009KT 10SM SCT048 SCT050 SCT085 25/17 A2997 RMK AO2 T02500173
 
KAIG - Antigo/Langlade, Wisconsin, USA
Distance from station: WSW 51mi, 82km
Updated: Thu, 05-Aug-2021 5:55pm CDT
Overcast
Overcast
 Wind from SW
Wind: SW 5 mph , 7 km/h
Temperature: 64°F , 18°C
Dew Point: 63°F , 17°C
Humidity: 94%
Barometer: 30.00 inHg , 1015.9 hPa
Clouds: Overcast
Visibility: 10 miles , 16 km
Cloud details: Overcast 6000 ft
2021/08/05 22:55 KAIG 052255Z AUTO 22004KT 10SM OVC060 18/17 A3000 RMK AO2 P0001 T01800173
KSUE - Sturgeon Bay, Wisconsin, USA
Distance from station: SE 51mi, 82km
Updated: Thu, 05-Aug-2021 5:56pm CDT
Few Clouds
Few Clouds
 Wind from S
Wind: S 14 mph , 22 km/h
Temperature: 75°F , 24°C
Dew Point: 63°F , 17°C
Humidity: 65%
Barometer: 29.97 inHg , 1014.9 hPa
Clouds: Few Clouds
Visibility: 10 miles , 16 km
Cloud details: Few Clouds 6000 ft
2021/08/05 22:56 KSUE 052256Z AUTO 17012KT 10SM FEW060 24/17 A2997 RMK AO2 SLP147 T02440172 PNO $
 
KESC - Escanaba, Michigan, USA
Distance from station: ENE 56mi, 90km
Updated: Thu, 05-Aug-2021 5:56pm CDT
Clear
Clear
 Wind from S
Wind: S 9 mph , 15 km/h
Temperature: 75°F , 24°C
Dew Point: 64°F , 18°C
Humidity: 69%
Barometer: 29.95 inHg , 1014.2 hPa
Clouds: Clear
Visibility: 10 miles , 16 km
2021/08/05 22:56 KESC 052256Z AUTO 19008KT 10SM CLR 24/18 A2995 RMK AO2 SLP141 T02440183 PNO $
KCLI - Clintonville, Wisconsin, USA
Distance from station: SSW 62mi, 99km
Updated: Thu, 05-Aug-2021 5:55pm CDT
Overcast
Overcast
 Wind from W
Wind: W 9 mph , 15 km/h, Gust: 16 mph , 26 km/h
Temperature: 75°F , 24°C
Dew Point: 61°F , 16°C
Humidity: 61%
Barometer: 29.98 inHg , 1015.2 hPa
Clouds: Overcast
Visibility: 10 miles , 16 km
Cloud details: Overcast 8000 ft
2021/08/05 22:55 KCLI 052255Z AUTO 26008G14KT 10SM OVC080 24/16 A2998 RMK AO2 T02370161
 
KGRB - Ashwaubenon, Wisconsin, USA
Distance from station: S 63mi, 102km
Updated: Thu, 05-Aug-2021 5:53pm CDT
Mostly cloudy
Mostly cloudy
 Wind from SW
Wind: SW 9 mph , 15 km/h, Gust: 17 mph , 28 km/h
Temperature: 81°F , 27°C
Heat Index: 81°F , 27°C
Dew Point: 57°F , 14°C
Humidity: 45%
Barometer: 29.96 inHg , 1014.6 hPa
Clouds: Mostly cloudy
Visibility: 10 miles , 16 km
Cloud details: Few Clouds 6000 ft
Mostly cloudy 12000 ft
2021/08/05 22:53 KGRB 052253Z 22008G15KT 10SM FEW060 BKN120 27/14 A2996 RMK AO2 SLP145 T02670144
KEGV - Eagle River, Wisconsin, USA
Distance from station: NW 66mi, 107km
Updated: Thu, 05-Aug-2021 5:55pm CDT
Overcast
Overcast
 Wind from SSW
Wind: SSW 10 mph , 17 km/h, Gust: 17 mph , 28 km/h
Temperature: 64°F , 18°C
Dew Point: 63°F , 17°C
Humidity: 94%
Barometer: 29.96 inHg , 1014.6 hPa
Clouds: Overcast
Visibility: 10 miles , 16 km
Cloud details: Partly cloudy 1200 ft
Mostly cloudy 1600 ft
Overcast 4500 ft
2021/08/05 22:55 KEGV 052255Z AUTO 21009G15KT 170V230 10SM SCT012 BKN016 OVC045 18/17 A2996 RMK AO2 T01800170
 
KRHI - Rhinelander, Wisconsin, USA
Distance from station: WNW 68mi, 109km
Updated: Thu, 05-Aug-2021 5:53pm CDT
Overcast
Overcast
 Wind from S
Wind: S 13 mph , 20 km/h, Gust: 20 mph , 31 km/h
Temperature: 64°F , 18°C
Dew Point: 61°F , 16°C
Humidity: 88%
Barometer: 29.98 inHg , 1015.2 hPa
Clouds: Overcast
Visibility: 10 miles , 16 km
Cloud details: Few Clouds 1500 ft
Overcast 3900 ft
2021/08/05 22:53 KRHI 052253Z AUTO 19011G17KT 10SM FEW015 OVC039 18/16 A2998 RMK AO2 RAE36 SLP149 P0001 T01780156
KLNL - Land O Lakes, Wisconsin, USA
Distance from station: NW 74mi, 119km
Updated: Thu, 05-Aug-2021 5:55pm CDT
Partly cloudy
Partly cloudy
 Wind from SW
Wind: SW 10 mph , 17 km/h, Gust: 22 mph , 35 km/h
Temperature: 66°F , 19°C
Dew Point: 61°F , 16°C
Humidity: 83%
Barometer: 29.97 inHg , 1014.9 hPa
Clouds: Partly cloudy
Visibility: 10 miles , 16 km
Cloud details: Partly cloudy 1800 ft
Partly cloudy 2300 ft
Partly cloudy 4900 ft
2021/08/05 22:55 KLNL 052255Z AUTO 22009G19KT 10SM SCT018 SCT023 SCT049 19/16 A2997 RMK AO2 P0001 T01940159
 
KSAW - Gwinn/Sawyer, Michigan, USA
Distance from station: NNE 74mi, 120km
Updated: Thu, 05-Aug-2021 5:45pm CDT
Mostly cloudy
Mostly cloudy
 Wind from SW
Wind: SW 12 mph , 19 km/h
Temperature: 75°F , 24°C
Dew Point: 57°F , 14°C
Humidity: 54%
Barometer: 29.93 inHg , 1013.5 hPa
Clouds: Mostly cloudy
Visibility: 10 miles , 16 km
Cloud details: Mostly cloudy 4700 ft
Mostly cloudy 5500 ft
Mostly cloudy 7000 ft
2021/08/05 22:45 KSAW 052245Z 22010KT 10SM BKN047 BKN055 BKN070 24/14 A2993